sensor_id;sensor_type;location;lat;lon;timestamp;P1;durP1;ratioP1;P2;durP2;ratioP2
31114;SDS011;17764;47.152;9.828;2023-02-08T00:02:19;6.20;;;3.87;;
31114;SDS011;17764;47.152;9.828;2023-02-08T00:04:46;7.63;;;4.60;;
31114;SDS011;17764;47.152;9.828;2023-02-08T00:07:12;6.17;;;4.53;;
31114;SDS011;17764;47.152;9.828;2023-02-08T00:09:38;7.47;;;4.67;;
31114;SDS011;17764;47.152;9.828;2023-02-08T00:12:04;7.43;;;5.27;;
31114;SDS011;17764;47.152;9.828;2023-02-08T00:14:30;9.63;;;5.93;;
31114;SDS011;17764;47.152;9.828;2023-02-08T00:16:56;7.63;;;5.50;;
31114;SDS011;17764;47.152;9.828;2023-02-08T00:19:21;9.40;;;6.00;;
31114;SDS011;17764;47.152;9.828;2023-02-08T00:21:47;9.50;;;5.93;;
31114;SDS011;17764;47.152;9.828;2023-02-08T00:24:13;9.33;;;5.97;;
31114;SDS011;17764;47.152;9.828;2023-02-08T00:26:39;7.97;;;5.80;;
31114;SDS011;17764;47.152;9.828;2023-02-08T00:29:06;8.20;;;6.07;;
31114;SDS011;17764;47.152;9.828;2023-02-08T00:31:32;6.80;;;4.90;;
31114;SDS011;17764;47.152;9.828;2023-02-08T00:33:58;5.77;;;4.13;;
31114;SDS011;17764;47.152;9.828;2023-02-08T00:36:24;6.70;;;4.20;;
31114;SDS011;17764;47.152;9.828;2023-02-08T00:38:50;6.17;;;4.13;;
31114;SDS011;17764;47.152;9.828;2023-02-08T00:41:16;6.30;;;4.07;;
31114;SDS011;17764;47.152;9.828;2023-02-08T00:43:42;6.47;;;3.87;;
31114;SDS011;17764;47.152;9.828;2023-02-08T00:46:08;5.50;;;4.00;;
31114;SDS011;17764;47.152;9.828;2023-02-08T00:48:34;5.30;;;3.90;;
31114;SDS011;17764;47.152;9.828;2023-02-08T00:51:02;6.40;;;4.87;;
31114;SDS011;17764;47.152;9.828;2023-02-08T00:53:28;5.17;;;3.67;;
31114;SDS011;17764;47.152;9.828;2023-02-08T00:55:55;4.93;;;3.70;;
31114;SDS011;17764;47.152;9.828;2023-02-08T00:58:21;4.37;;;3.30;;
31114;SDS011;17764;47.152;9.828;2023-02-08T01:00:51;5.13;;;3.10;;
31114;SDS011;17764;47.152;9.828;2023-02-08T01:03:18;5.40;;;3.40;;
31114;SDS011;17764;47.152;9.828;2023-02-08T01:05:44;5.80;;;3.97;;
31114;SDS011;17764;47.152;9.828;2023-02-08T01:08:10;6.43;;;3.60;;
31114;SDS011;17764;47.152;9.828;2023-02-08T01:10:36;5.00;;;3.60;;
31114;SDS011;17764;47.152;9.828;2023-02-08T01:13:02;5.70;;;3.90;;
31114;SDS011;17764;47.152;9.828;2023-02-08T01:15:28;6.23;;;3.70;;
31114;SDS011;17764;47.152;9.828;2023-02-08T01:17:55;6.53;;;4.13;;
31114;SDS011;17764;47.152;9.828;2023-02-08T01:20:22;7.10;;;4.33;;
31114;SDS011;17764;47.152;9.828;2023-02-08T01:22:49;6.23;;;4.20;;
31114;SDS011;17764;47.152;9.828;2023-02-08T01:25:15;6.53;;;4.67;;
31114;SDS011;17764;47.152;9.828;2023-02-08T01:27:41;7.83;;;4.57;;
31114;SDS011;17764;47.152;9.828;2023-02-08T01:30:07;6.00;;;4.57;;
31114;SDS011;17764;47.152;9.828;2023-02-08T01:32:34;6.53;;;4.43;;
31114;SDS011;17764;47.152;9.828;2023-02-08T01:35:00;6.83;;;4.73;;
31114;SDS011;17764;47.152;9.828;2023-02-08T01:37:25;7.97;;;5.43;;
31114;SDS011;17764;47.152;9.828;2023-02-08T01:39:51;7.10;;;4.73;;
31114;SDS011;17764;47.152;9.828;2023-02-08T01:42:18;7.50;;;4.90;;
31114;SDS011;17764;47.152;9.828;2023-02-08T01:47:41;8.67;;;4.30;;
31114;SDS011;17764;47.152;9.828;2023-02-08T01:50:08;6.63;;;4.53;;
31114;SDS011;17764;47.152;9.828;2023-02-08T01:52:34;8.40;;;4.77;;
31114;SDS011;17764;47.152;9.828;2023-02-08T01:55:08;8.17;;;4.90;;
31114;SDS011;17764;47.152;9.828;2023-02-08T01:57:36;7.27;;;4.83;;
31114;SDS011;17764;47.152;9.828;2023-02-08T02:00:07;7.33;;;4.43;;
31114;SDS011;17764;47.152;9.828;2023-02-08T02:02:34;6.10;;;4.73;;
31114;SDS011;17764;47.152;9.828;2023-02-08T02:05:00;6.50;;;4.50;;
31114;SDS011;17764;47.152;9.828;2023-02-08T02:07:27;7.57;;;4.63;;
31114;SDS011;17764;47.152;9.828;2023-02-08T02:12:23;6.43;;;4.30;;
31114;SDS011;17764;47.152;9.828;2023-02-08T02:14:49;8.10;;;4.27;;
31114;SDS011;17764;47.152;9.828;2023-02-08T02:17:16;5.83;;;4.17;;
31114;SDS011;17764;47.152;9.828;2023-02-08T02:35:45;5.47;;;4.23;;
31114;SDS011;17764;47.152;9.828;2023-02-08T02:38:15;8.00;;;4.00;;
31114;SDS011;17764;47.152;9.828;2023-02-08T02:43:23;5.30;;;3.50;;
31114;SDS011;17764;47.152;9.828;2023-02-08T02:48:59;5.47;;;4.03;;
31114;SDS011;17764;47.152;9.828;2023-02-08T02:51:28;7.20;;;3.73;;
31114;SDS011;17764;47.152;9.828;2023-02-08T02:54:19;6.17;;;4.00;;
31114;SDS011;17764;47.152;9.828;2023-02-08T02:56:49;5.67;;;4.03;;
31114;SDS011;17764;47.152;9.828;2023-02-08T02:59:16;5.20;;;3.97;;
31114;SDS011;17764;47.152;9.828;2023-02-08T03:01:43;5.37;;;4.17;;
31114;SDS011;17764;47.152;9.828;2023-02-08T03:11:55;5.37;;;4.20;;
31114;SDS011;17764;47.152;9.828;2023-02-08T03:20:05;5.87;;;3.73;;
31114;SDS011;17764;47.152;9.828;2023-02-08T03:22:46;5.60;;;3.73;;
31114;SDS011;17764;47.152;9.828;2023-02-08T03:29:13;5.80;;;4.03;;
31114;SDS011;17764;47.152;9.828;2023-02-08T03:31:20;5.13;;;3.80;;
31114;SDS011;17764;47.152;9.828;2023-02-08T03:33:50;6.23;;;3.70;;
31114;SDS011;17764;47.152;9.828;2023-02-08T03:36:24;5.20;;;3.47;;
31114;SDS011;17764;47.152;9.828;2023-02-08T03:38:57;6.77;;;3.80;;
31114;SDS011;17764;47.152;9.828;2023-02-08T03:41:25;6.10;;;3.67;;
31114;SDS011;17764;47.152;9.828;2023-02-08T03:43:57;5.07;;;3.43;;
31114;SDS011;17764;47.152;9.828;2023-02-08T03:46:28;5.47;;;3.53;;
31114;SDS011;17764;47.152;9.828;2023-02-08T03:49:20;6.23;;;3.60;;
31114;SDS011;17764;47.152;9.828;2023-02-08T03:51:45;4.40;;;3.30;;
31114;SDS011;17764;47.152;9.828;2023-02-08T03:54:12;4.43;;;3.00;;
31114;SDS011;17764;47.152;9.828;2023-02-08T03:57:00;3.90;;;2.83;;
31114;SDS011;17764;47.152;9.828;2023-02-08T03:59:33;3.73;;;2.60;;
31114;SDS011;17764;47.152;9.828;2023-02-08T04:02:01;4.10;;;2.80;;
31114;SDS011;17764;47.152;9.828;2023-02-08T04:04:32;3.10;;;2.60;;
31114;SDS011;17764;47.152;9.828;2023-02-08T04:06:58;4.40;;;2.90;;
31114;SDS011;17764;47.152;9.828;2023-02-08T04:09:24;3.97;;;2.43;;
31114;SDS011;17764;47.152;9.828;2023-02-08T04:11:50;3.57;;;2.87;;
31114;SDS011;17764;47.152;9.828;2023-02-08T04:14:18;4.73;;;2.67;;
31114;SDS011;17764;47.152;9.828;2023-02-08T04:16:44;3.90;;;2.43;;
31114;SDS011;17764;47.152;9.828;2023-02-08T04:19:10;3.30;;;2.60;;
31114;SDS011;17764;47.152;9.828;2023-02-08T04:21:36;4.43;;;2.73;;
31114;SDS011;17764;47.152;9.828;2023-02-08T04:24:01;5.50;;;3.17;;
31114;SDS011;17764;47.152;9.828;2023-02-08T04:26:27;5.27;;;3.60;;
31114;SDS011;17764;47.152;9.828;2023-02-08T04:28:53;5.23;;;2.67;;
31114;SDS011;17764;47.152;9.828;2023-02-08T04:31:19;4.50;;;3.20;;
31114;SDS011;17764;47.152;9.828;2023-02-08T04:33:45;3.77;;;2.40;;
31114;SDS011;17764;47.152;9.828;2023-02-08T04:36:11;4.23;;;2.90;;
31114;SDS011;17764;47.152;9.828;2023-02-08T04:38:37;4.60;;;2.77;;
31114;SDS011;17764;47.152;9.828;2023-02-08T04:41:02;3.90;;;2.50;;
31114;SDS011;17764;47.152;9.828;2023-02-08T04:43:28;3.20;;;2.50;;
31114;SDS011;17764;47.152;9.828;2023-02-08T04:45:54;4.77;;;2.83;;
31114;SDS011;17764;47.152;9.828;2023-02-08T04:48:19;6.50;;;3.20;;
31114;SDS011;17764;47.152;9.828;2023-02-08T04:50:45;5.57;;;3.30;;
31114;SDS011;17764;47.152;9.828;2023-02-08T04:53:11;5.93;;;3.40;;
31114;SDS011;17764;47.152;9.828;2023-02-08T04:55:39;5.30;;;3.13;;
31114;SDS011;17764;47.152;9.828;2023-02-08T04:58:05;4.30;;;2.77;;
31114;SDS011;17764;47.152;9.828;2023-02-08T05:00:31;5.40;;;2.90;;
31114;SDS011;17764;47.152;9.828;2023-02-08T05:02:57;4.60;;;2.90;;
31114;SDS011;17764;47.152;9.828;2023-02-08T05:05:24;4.97;;;2.77;;
31114;SDS011;17764;47.152;9.828;2023-02-08T05:07:50;5.13;;;2.87;;
31114;SDS011;17764;47.152;9.828;2023-02-08T05:10:16;3.80;;;2.40;;
31114;SDS011;17764;47.152;9.828;2023-02-08T05:12:42;3.23;;;2.50;;
31114;SDS011;17764;47.152;9.828;2023-02-08T05:15:09;3.10;;;2.40;;
31114;SDS011;17764;47.152;9.828;2023-02-08T05:17:35;4.03;;;2.67;;
31114;SDS011;17764;47.152;9.828;2023-02-08T05:20:02;3.63;;;2.27;;
31114;SDS011;17764;47.152;9.828;2023-02-08T05:22:29;5.70;;;2.53;;
31114;SDS011;17764;47.152;9.828;2023-02-08T05:24:55;4.57;;;2.40;;
31114;SDS011;17764;47.152;9.828;2023-02-08T05:27:20;3.90;;;2.40;;
31114;SDS011;17764;47.152;9.828;2023-02-08T05:29:47;4.80;;;2.47;;
31114;SDS011;17764;47.152;9.828;2023-02-08T05:32:13;3.90;;;2.53;;
31114;SDS011;17764;47.152;9.828;2023-02-08T05:34:39;3.93;;;2.60;;
31114;SDS011;17764;47.152;9.828;2023-02-08T05:37:05;3.77;;;2.33;;
31114;SDS011;17764;47.152;9.828;2023-02-08T05:39:31;5.40;;;3.17;;
31114;SDS011;17764;47.152;9.828;2023-02-08T05:41:57;2.90;;;2.40;;
31114;SDS011;17764;47.152;9.828;2023-02-08T05:44:22;4.43;;;2.20;;
31114;SDS011;17764;47.152;9.828;2023-02-08T05:46:48;4.07;;;2.90;;
31114;SDS011;17764;47.152;9.828;2023-02-08T05:49:14;3.23;;;2.67;;
31114;SDS011;17764;47.152;9.828;2023-02-08T05:51:40;3.60;;;2.37;;
31114;SDS011;17764;47.152;9.828;2023-02-08T05:54:06;3.77;;;2.33;;
31114;SDS011;17764;47.152;9.828;2023-02-08T05:56:32;4.50;;;3.07;;
31114;SDS011;17764;47.152;9.828;2023-02-08T05:59:01;4.90;;;3.20;;
31114;SDS011;17764;47.152;9.828;2023-02-08T06:01:28;6.17;;;3.80;;
31114;SDS011;17764;47.152;9.828;2023-02-08T06:03:54;6.07;;;3.73;;
31114;SDS011;17764;47.152;9.828;2023-02-08T06:06:20;4.43;;;3.13;;
31114;SDS011;17764;47.152;9.828;2023-02-08T06:08:46;6.53;;;4.00;;
31114;SDS011;17764;47.152;9.828;2023-02-08T06:11:12;4.47;;;3.20;;
31114;SDS011;17764;47.152;9.828;2023-02-08T06:13:38;6.97;;;3.00;;
31114;SDS011;17764;47.152;9.828;2023-02-08T06:16:04;6.53;;;3.13;;
31114;SDS011;17764;47.152;9.828;2023-02-08T06:18:30;6.40;;;3.33;;
31114;SDS011;17764;47.152;9.828;2023-02-08T06:20:56;6.07;;;3.50;;
31114;SDS011;17764;47.152;9.828;2023-02-08T06:23:22;4.43;;;3.33;;
31114;SDS011;17764;47.152;9.828;2023-02-08T06:25:48;5.63;;;4.00;;
31114;SDS011;17764;47.152;9.828;2023-02-08T06:28:14;5.77;;;4.00;;
31114;SDS011;17764;47.152;9.828;2023-02-08T06:30:40;5.67;;;4.10;;
31114;SDS011;17764;47.152;9.828;2023-02-08T06:33:06;6.07;;;3.93;;
31114;SDS011;17764;47.152;9.828;2023-02-08T06:35:32;4.83;;;3.60;;
31114;SDS011;17764;47.152;9.828;2023-02-08T06:37:58;5.17;;;3.77;;
31114;SDS011;17764;47.152;9.828;2023-02-08T06:40:24;5.53;;;3.70;;
31114;SDS011;17764;47.152;9.828;2023-02-08T06:42:50;4.17;;;3.30;;
31114;SDS011;17764;47.152;9.828;2023-02-08T06:45:16;5.60;;;4.20;;
31114;SDS011;17764;47.152;9.828;2023-02-08T06:47:42;7.70;;;4.87;;
31114;SDS011;17764;47.152;9.828;2023-02-08T06:50:08;8.37;;;4.93;;
31114;SDS011;17764;47.152;9.828;2023-02-08T06:52:35;7.17;;;5.17;;
31114;SDS011;17764;47.152;9.828;2023-02-08T06:55:00;10.80;;;4.90;;
31114;SDS011;17764;47.152;9.828;2023-02-08T06:57:26;9.30;;;5.77;;
31114;SDS011;17764;47.152;9.828;2023-02-08T06:59:52;8.87;;;6.03;;
31114;SDS011;17764;47.152;9.828;2023-02-08T07:02:21;9.00;;;4.73;;
31114;SDS011;17764;47.152;9.828;2023-02-08T07:04:47;9.47;;;5.70;;
31114;SDS011;17764;47.152;9.828;2023-02-08T07:07:14;9.37;;;6.17;;
31114;SDS011;17764;47.152;9.828;2023-02-08T07:09:40;9.60;;;6.80;;
31114;SDS011;17764;47.152;9.828;2023-02-08T07:12:06;10.10;;;6.33;;
31114;SDS011;17764;47.152;9.828;2023-02-08T07:14:33;13.23;;;6.83;;
31114;SDS011;17764;47.152;9.828;2023-02-08T07:17:00;10.87;;;5.93;;
31114;SDS011;17764;47.152;9.828;2023-02-08T07:19:26;9.70;;;6.50;;
31114;SDS011;17764;47.152;9.828;2023-02-08T07:21:52;10.57;;;5.73;;
31114;SDS011;17764;47.152;9.828;2023-02-08T07:24:19;9.57;;;6.20;;
31114;SDS011;17764;47.152;9.828;2023-02-08T07:26:45;8.17;;;5.67;;
31114;SDS011;17764;47.152;9.828;2023-02-08T07:29:11;9.43;;;5.40;;
31114;SDS011;17764;47.152;9.828;2023-02-08T07:31:36;6.67;;;4.30;;
31114;SDS011;17764;47.152;9.828;2023-02-08T07:34:02;10.23;;;5.20;;
31114;SDS011;17764;47.152;9.828;2023-02-08T07:36:28;7.80;;;5.37;;
31114;SDS011;17764;47.152;9.828;2023-02-08T07:38:54;7.63;;;4.47;;
31114;SDS011;17764;47.152;9.828;2023-02-08T07:41:20;7.50;;;4.57;;
31114;SDS011;17764;47.152;9.828;2023-02-08T07:43:46;7.00;;;4.33;;
31114;SDS011;17764;47.152;9.828;2023-02-08T07:46:18;5.97;;;4.23;;
31114;SDS011;17764;47.152;9.828;2023-02-08T07:48:44;4.90;;;3.80;;
31114;SDS011;17764;47.152;9.828;2023-02-08T07:51:10;7.33;;;4.73;;
31114;SDS011;17764;47.152;9.828;2023-02-08T07:53:39;6.67;;;4.07;;
31114;SDS011;17764;47.152;9.828;2023-02-08T07:56:05;7.73;;;4.13;;
31114;SDS011;17764;47.152;9.828;2023-02-08T07:58:32;5.77;;;3.80;;
31114;SDS011;17764;47.152;9.828;2023-02-08T08:00:58;7.17;;;3.50;;
31114;SDS011;17764;47.152;9.828;2023-02-08T08:03:24;8.00;;;4.30;;
31114;SDS011;17764;47.152;9.828;2023-02-08T08:05:50;8.53;;;4.47;;
31114;SDS011;17764;47.152;9.828;2023-02-08T08:08:17;6.70;;;4.30;;
31114;SDS011;17764;47.152;9.828;2023-02-08T08:10:42;5.13;;;3.93;;
31114;SDS011;17764;47.152;9.828;2023-02-08T08:13:10;5.20;;;3.90;;
31114;SDS011;17764;47.152;9.828;2023-02-08T08:15:36;5.93;;;4.10;;
31114;SDS011;17764;47.152;9.828;2023-02-08T08:18:02;5.97;;;4.67;;
31114;SDS011;17764;47.152;9.828;2023-02-08T08:20:28;7.17;;;4.40;;
31114;SDS011;17764;47.152;9.828;2023-02-08T08:22:54;5.90;;;4.47;;
31114;SDS011;17764;47.152;9.828;2023-02-08T08:25:20;5.93;;;4.80;;
31114;SDS011;17764;47.152;9.828;2023-02-08T08:27:46;7.27;;;4.90;;
31114;SDS011;17764;47.152;9.828;2023-02-08T08:30:14;7.67;;;5.13;;
31114;SDS011;17764;47.152;9.828;2023-02-08T08:32:40;6.43;;;4.20;;
31114;SDS011;17764;47.152;9.828;2023-02-08T08:35:07;6.33;;;4.37;;
31114;SDS011;17764;47.152;9.828;2023-02-08T08:37:33;8.07;;;5.40;;
31114;SDS011;17764;47.152;9.828;2023-02-08T08:39:59;6.70;;;4.97;;
31114;SDS011;17764;47.152;9.828;2023-02-08T08:42:25;9.00;;;5.13;;
31114;SDS011;17764;47.152;9.828;2023-02-08T08:44:51;10.43;;;5.30;;
31114;SDS011;17764;47.152;9.828;2023-02-08T08:47:17;9.20;;;5.57;;
31114;SDS011;17764;47.152;9.828;2023-02-08T08:49:43;8.23;;;5.27;;
31114;SDS011;17764;47.152;9.828;2023-02-08T08:52:09;7.47;;;4.60;;
31114;SDS011;17764;47.152;9.828;2023-02-08T08:54:36;7.90;;;4.87;;
31114;SDS011;17764;47.152;9.828;2023-02-08T08:57:02;5.20;;;3.63;;
31114;SDS011;17764;47.152;9.828;2023-02-08T08:59:28;7.73;;;4.03;;
31114;SDS011;17764;47.152;9.828;2023-02-08T09:01:54;6.03;;;4.00;;
31114;SDS011;17764;47.152;9.828;2023-02-08T09:04:20;7.67;;;4.00;;
31114;SDS011;17764;47.152;9.828;2023-02-08T09:06:50;5.00;;;3.13;;
31114;SDS011;17764;47.152;9.828;2023-02-08T09:09:16;5.03;;;3.13;;
31114;SDS011;17764;47.152;9.828;2023-02-08T09:11:42;4.27;;;3.27;;
31114;SDS011;17764;47.152;9.828;2023-02-08T09:14:08;5.37;;;3.50;;
31114;SDS011;17764;47.152;9.828;2023-02-08T09:16:34;5.67;;;3.47;;
31114;SDS011;17764;47.152;9.828;2023-02-08T09:19:04;4.40;;;2.90;;
31114;SDS011;17764;47.152;9.828;2023-02-08T09:21:31;4.83;;;2.83;;
31114;SDS011;17764;47.152;9.828;2023-02-08T09:23:57;3.83;;;2.60;;
31114;SDS011;17764;47.152;9.828;2023-02-08T09:26:23;4.57;;;2.60;;
31114;SDS011;17764;47.152;9.828;2023-02-08T09:28:50;3.73;;;2.13;;
31114;SDS011;17764;47.152;9.828;2023-02-08T09:31:21;5.80;;;2.50;;
31114;SDS011;17764;47.152;9.828;2023-02-08T09:33:47;6.47;;;2.50;;
31114;SDS011;17764;47.152;9.828;2023-02-08T09:36:14;4.70;;;2.17;;
31114;SDS011;17764;47.152;9.828;2023-02-08T09:38:41;4.77;;;2.47;;
31114;SDS011;17764;47.152;9.828;2023-02-08T09:46:11;4.07;;;2.20;;
31114;SDS011;17764;47.152;9.828;2023-02-08T09:48:41;4.33;;;3.00;;
31114;SDS011;17764;47.152;9.828;2023-02-08T09:53:35;3.00;;;2.13;;
31114;SDS011;17764;47.152;9.828;2023-02-08T09:56:06;3.07;;;2.00;;
31114;SDS011;17764;47.152;9.828;2023-02-08T10:01:02;5.37;;;2.20;;
31114;SDS011;17764;47.152;9.828;2023-02-08T10:03:41;4.33;;;2.43;;
31114;SDS011;17764;47.152;9.828;2023-02-08T10:06:12;3.83;;;2.17;;
31114;SDS011;17764;47.152;9.828;2023-02-08T10:08:39;4.97;;;2.10;;
31114;SDS011;17764;47.152;9.828;2023-02-08T10:14:01;4.93;;;2.20;;
31114;SDS011;17764;47.152;9.828;2023-02-08T10:27:35;4.70;;;2.00;;
31114;SDS011;17764;47.152;9.828;2023-02-08T10:33:40;4.40;;;1.97;;
31114;SDS011;17764;47.152;9.828;2023-02-08T10:36:11;5.33;;;2.00;;
31114;SDS011;17764;47.152;9.828;2023-02-08T10:38:38;1.80;;;1.60;;
31114;SDS011;17764;47.152;9.828;2023-02-08T10:41:06;3.90;;;1.90;;
31114;SDS011;17764;47.152;9.828;2023-02-08T10:43:39;2.13;;;1.80;;
31114;SDS011;17764;47.152;9.828;2023-02-08T10:46:11;4.37;;;1.50;;
31114;SDS011;17764;47.152;9.828;2023-02-08T10:51:14;5.67;;;1.87;;
31114;SDS011;17764;47.152;9.828;2023-02-08T10:53:41;5.87;;;1.83;;
31114;SDS011;17764;47.152;9.828;2023-02-08T10:56:20;3.13;;;2.13;;
31114;SDS011;17764;47.152;9.828;2023-02-08T10:58:48;3.20;;;1.80;;
31114;SDS011;17764;47.152;9.828;2023-02-08T11:01:14;7.27;;;1.77;;
31114;SDS011;17764;47.152;9.828;2023-02-08T11:03:58;4.60;;;1.90;;
31114;SDS011;17764;47.152;9.828;2023-02-08T11:06:25;4.70;;;1.93;;
31114;SDS011;17764;47.152;9.828;2023-02-08T11:08:54;5.37;;;1.83;;
31114;SDS011;17764;47.152;9.828;2023-02-08T11:11:21;2.50;;;1.87;;
31114;SDS011;17764;47.152;9.828;2023-02-08T11:13:49;4.83;;;1.73;;
31114;SDS011;17764;47.152;9.828;2023-02-08T11:16:22;5.00;;;1.77;;
31114;SDS011;17764;47.152;9.828;2023-02-08T11:21:28;4.60;;;1.80;;
31114;SDS011;17764;47.152;9.828;2023-02-08T11:23:57;7.53;;;1.97;;
31114;SDS011;17764;47.152;9.828;2023-02-08T11:26:35;2.83;;;1.83;;
31114;SDS011;17764;47.152;9.828;2023-02-08T11:29:11;4.20;;;2.23;;
31114;SDS011;17764;47.152;9.828;2023-02-08T11:31:38;5.90;;;2.37;;
31114;SDS011;17764;47.152;9.828;2023-02-08T11:36:35;5.37;;;2.13;;
31114;SDS011;17764;47.152;9.828;2023-02-08T11:39:03;4.20;;;2.33;;
31114;SDS011;17764;47.152;9.828;2023-02-08T11:41:42;4.33;;;2.33;;
31114;SDS011;17764;47.152;9.828;2023-02-08T11:44:11;5.60;;;2.60;;
31114;SDS011;17764;47.152;9.828;2023-02-08T11:46:43;4.13;;;2.60;;
31114;SDS011;17764;47.152;9.828;2023-02-08T11:49:22;6.80;;;3.13;;
31114;SDS011;17764;47.152;9.828;2023-02-08T11:51:49;3.60;;;2.30;;
31114;SDS011;17764;47.152;9.828;2023-02-08T11:54:33;4.03;;;2.70;;
31114;SDS011;17764;47.152;9.828;2023-02-08T11:57:00;3.50;;;2.70;;
31114;SDS011;17764;47.152;9.828;2023-02-08T11:59:27;4.63;;;2.80;;
31114;SDS011;17764;47.152;9.828;2023-02-08T12:01:54;5.77;;;3.10;;
31114;SDS011;17764;47.152;9.828;2023-02-08T12:04:20;8.30;;;4.20;;
31114;SDS011;17764;47.152;9.828;2023-02-08T12:12:20;5.23;;;3.87;;
31114;SDS011;17764;47.152;9.828;2023-02-08T12:14:55;11.20;;;6.07;;
31114;SDS011;17764;47.152;9.828;2023-02-08T12:20:00;7.97;;;5.30;;
31114;SDS011;17764;47.152;9.828;2023-02-08T12:22:53;9.10;;;5.90;;
31114;SDS011;17764;47.152;9.828;2023-02-08T12:46:13;11.43;;;7.17;;
31114;SDS011;17764;47.152;9.828;2023-02-08T12:53:57;12.63;;;7.40;;
31114;SDS011;17764;47.152;9.828;2023-02-08T12:56:37;10.73;;;7.70;;
31114;SDS011;17764;47.152;9.828;2023-02-08T12:59:05;12.10;;;7.67;;
31114;SDS011;17764;47.152;9.828;2023-02-08T13:01:39;9.17;;;7.43;;
31114;SDS011;17764;47.152;9.828;2023-02-08T13:04:07;11.50;;;7.03;;
31114;SDS011;17764;47.152;9.828;2023-02-08T13:06:38;11.67;;;7.37;;
31114;SDS011;17764;47.152;9.828;2023-02-08T13:12:12;9.93;;;7.93;;
31114;SDS011;17764;47.152;9.828;2023-02-08T13:19:41;8.83;;;6.90;;
31114;SDS011;17764;47.152;9.828;2023-02-08T13:22:11;13.37;;;7.60;;
31114;SDS011;17764;47.152;9.828;2023-02-08T13:24:40;9.03;;;7.13;;
31114;SDS011;17764;47.152;9.828;2023-02-08T13:27:18;13.13;;;8.07;;
31114;SDS011;17764;47.152;9.828;2023-02-08T13:29:46;11.23;;;8.20;;
31114;SDS011;17764;47.152;9.828;2023-02-08T13:32:34;12.53;;;7.80;;
31114;SDS011;17764;47.152;9.828;2023-02-08T13:35:12;13.20;;;8.10;;
31114;SDS011;17764;47.152;9.828;2023-02-08T13:38:00;13.97;;;7.93;;
31114;SDS011;17764;47.152;9.828;2023-02-08T13:40:29;11.63;;;8.60;;
31114;SDS011;17764;47.152;9.828;2023-02-08T13:47:57;10.17;;;8.00;;
31114;SDS011;17764;47.152;9.828;2023-02-08T13:53:03;10.67;;;8.20;;
31114;SDS011;17764;47.152;9.828;2023-02-08T13:58:00;11.87;;;8.10;;
31114;SDS011;17764;47.152;9.828;2023-02-08T14:03:18;10.83;;;8.43;;
31114;SDS011;17764;47.152;9.828;2023-02-08T14:05:47;11.77;;;8.07;;
31114;SDS011;17764;47.152;9.828;2023-02-08T14:08:20;13.80;;;8.77;;
31114;SDS011;17764;47.152;9.828;2023-02-08T14:10:59;12.20;;;9.23;;
31114;SDS011;17764;47.152;9.828;2023-02-08T14:13:50;14.17;;;9.93;;
31114;SDS011;17764;47.152;9.828;2023-02-08T14:21:48;14.33;;;10.17;;
31114;SDS011;17764;47.152;9.828;2023-02-08T14:24:19;11.70;;;9.23;;
31114;SDS011;17764;47.152;9.828;2023-02-08T14:26:45;13.77;;;9.80;;
31114;SDS011;17764;47.152;9.828;2023-02-08T14:29:18;14.00;;;9.67;;
31114;SDS011;17764;47.152;9.828;2023-02-08T14:31:50;14.23;;;10.37;;
31114;SDS011;17764;47.152;9.828;2023-02-08T14:37:26;14.20;;;9.70;;
31114;SDS011;17764;47.152;9.828;2023-02-08T14:39:45;14.17;;;9.47;;
31114;SDS011;17764;47.152;9.828;2023-02-08T14:42:16;11.93;;;9.23;;
31114;SDS011;17764;47.152;9.828;2023-02-08T14:45:00;13.43;;;10.63;;
31114;SDS011;17764;47.152;9.828;2023-02-08T14:50:00;12.50;;;9.13;;
31114;SDS011;17764;47.152;9.828;2023-02-08T14:52:34;13.87;;;9.97;;
31114;SDS011;17764;47.152;9.828;2023-02-08T14:55:12;11.13;;;8.77;;
31114;SDS011;17764;47.152;9.828;2023-02-08T14:57:39;12.67;;;9.80;;
31114;SDS011;17764;47.152;9.828;2023-02-08T15:00:07;14.67;;;10.83;;
31114;SDS011;17764;47.152;9.828;2023-02-08T15:02:41;15.90;;;10.17;;
31114;SDS011;17764;47.152;9.828;2023-02-08T15:05:17;14.47;;;10.13;;
31114;SDS011;17764;47.152;9.828;2023-02-08T15:07:50;14.13;;;10.30;;
31114;SDS011;17764;47.152;9.828;2023-02-08T15:10:17;13.87;;;10.30;;
31114;SDS011;17764;47.152;9.828;2023-02-08T15:12:54;16.70;;;11.20;;
31114;SDS011;17764;47.152;9.828;2023-02-08T15:15:27;14.90;;;10.07;;
31114;SDS011;17764;47.152;9.828;2023-02-08T15:17:54;13.93;;;10.77;;
31114;SDS011;17764;47.152;9.828;2023-02-08T15:22:46;14.40;;;10.50;;
31114;SDS011;17764;47.152;9.828;2023-02-08T15:27:51;15.77;;;11.50;;
31114;SDS011;17764;47.152;9.828;2023-02-08T15:30:34;15.60;;;11.70;;
31114;SDS011;17764;47.152;9.828;2023-02-08T15:33:06;15.47;;;11.60;;
31114;SDS011;17764;47.152;9.828;2023-02-08T15:35:33;13.87;;;10.80;;
31114;SDS011;17764;47.152;9.828;2023-02-08T15:38:00;16.07;;;12.03;;
31114;SDS011;17764;47.152;9.828;2023-02-08T15:40:30;16.90;;;11.60;;
31114;SDS011;17764;47.152;9.828;2023-02-08T15:45:31;15.90;;;11.60;;
31114;SDS011;17764;47.152;9.828;2023-02-08T15:47:57;16.77;;;12.43;;
31114;SDS011;17764;47.152;9.828;2023-02-08T15:50:24;15.43;;;11.63;;
31114;SDS011;17764;47.152;9.828;2023-02-08T15:53:00;17.40;;;12.80;;
31114;SDS011;17764;47.152;9.828;2023-02-08T15:55:30;16.77;;;11.93;;
31114;SDS011;17764;47.152;9.828;2023-02-08T15:58:05;15.17;;;11.67;;
31114;SDS011;17764;47.152;9.828;2023-02-08T16:00:36;15.37;;;12.30;;
31114;SDS011;17764;47.152;9.828;2023-02-08T16:03:06;16.37;;;11.87;;
31114;SDS011;17764;47.152;9.828;2023-02-08T16:05:35;16.73;;;11.57;;
31114;SDS011;17764;47.152;9.828;2023-02-08T16:08:02;16.07;;;12.47;;
31114;SDS011;17764;47.152;9.828;2023-02-08T16:10:32;16.57;;;11.63;;
31114;SDS011;17764;47.152;9.828;2023-02-08T16:13:02;17.60;;;12.87;;
31114;SDS011;17764;47.152;9.828;2023-02-08T16:23:53;17.83;;;13.90;;
31114;SDS011;17764;47.152;9.828;2023-02-08T16:26:34;17.23;;;13.10;;
31114;SDS011;17764;47.152;9.828;2023-02-08T16:29:25;17.70;;;13.33;;
31114;SDS011;17764;47.152;9.828;2023-02-08T16:32:05;17.20;;;12.47;;
31114;SDS011;17764;47.152;9.828;2023-02-08T16:34:50;20.77;;;14.00;;
31114;SDS011;17764;47.152;9.828;2023-02-08T16:37:22;20.50;;;14.57;;
31114;SDS011;17764;47.152;9.828;2023-02-08T16:39:52;20.37;;;14.63;;
31114;SDS011;17764;47.152;9.828;2023-02-08T16:42:20;20.50;;;13.67;;
31114;SDS011;17764;47.152;9.828;2023-02-08T16:50:04;17.53;;;12.03;;
31114;SDS011;17764;47.152;9.828;2023-02-08T16:52:31;15.87;;;12.37;;
31114;SDS011;17764;47.152;9.828;2023-02-08T16:54:57;17.20;;;12.83;;
31114;SDS011;17764;47.152;9.828;2023-02-08T16:57:23;17.27;;;12.43;;
31114;SDS011;17764;47.152;9.828;2023-02-08T16:59:49;16.60;;;11.80;;
31114;SDS011;17764;47.152;9.828;2023-02-08T17:02:15;21.90;;;13.13;;
31114;SDS011;17764;47.152;9.828;2023-02-08T17:04:41;23.17;;;15.47;;
31114;SDS011;17764;47.152;9.828;2023-02-08T17:07:16;22.00;;;14.53;;
31114;SDS011;17764;47.152;9.828;2023-02-08T17:09:42;22.60;;;15.03;;
31114;SDS011;17764;47.152;9.828;2023-02-08T17:12:09;23.60;;;15.20;;
31114;SDS011;17764;47.152;9.828;2023-02-08T17:14:35;20.20;;;13.80;;
31114;SDS011;17764;47.152;9.828;2023-02-08T17:17:01;20.20;;;13.87;;
31114;SDS011;17764;47.152;9.828;2023-02-08T17:19:27;21.50;;;14.07;;
31114;SDS011;17764;47.152;9.828;2023-02-08T17:21:53;20.47;;;14.03;;
31114;SDS011;17764;47.152;9.828;2023-02-08T17:24:19;21.20;;;14.03;;
31114;SDS011;17764;47.152;9.828;2023-02-08T17:26:46;25.33;;;14.60;;
31114;SDS011;17764;47.152;9.828;2023-02-08T17:29:12;23.07;;;15.57;;
31114;SDS011;17764;47.152;9.828;2023-02-08T17:31:39;24.83;;;14.90;;
31114;SDS011;17764;47.152;9.828;2023-02-08T17:34:05;21.00;;;14.37;;
31114;SDS011;17764;47.152;9.828;2023-02-08T17:36:34;24.73;;;15.93;;
31114;SDS011;17764;47.152;9.828;2023-02-08T17:39:00;21.23;;;14.77;;